Utica, NY

4:04 AM EST on February 28, 2017 (GMT -0500)
Southwoods | | Change Station
Active Advisory: Special Statement

Elev 932 ft 43.06 °N, 75.25 °W | Updated 5 seconds ago

Rain
Rain
38.7 °F
Feels Like 39 °F
N
0.0
Wind Variable Wind from SE
Gusts 0.0 mph

Today
High -- | Low -- °F
--% Chance of Precip.
Yesterday
High -- | Low -- °F
Precip. -- in
Pressure 30.34 in
Visibility 10.0 miles
Clouds Mostly Cloudy 9000 ft
Overcast 11000 ft
Windchill 39 °F
Dew Point 25 °F
Humidity 58%
Rainfall 0.00 in
Snow Depth Not available.
6:38 AM 5:49 PM
Waxing Crescent, 4% visible
METAR KRME 280853Z AUTO 00000KT 10SM BKN090 OVC110 00/M02 A3033 RMK AO2 SLP272 T00001017 58006
Pressure 30.34 in
Visibility 10.0 miles
Clouds Mostly Cloudy 9000 ft
Overcast 11000 ft
Windchill 39 °F
Dew Point 25 °F
Humidity 58%
Rainfall 0.00 in
Snow Depth Not available.
6:38 AM 5:49 PM
Waxing Crescent, 4% visible
METAR KRME 280853Z AUTO 00000KT 10SM BKN090 OVC110 00/M02 A3033 RMK AO2 SLP272 T00001017 58006

Get Your Daily Forecast Email!

Thanks for signing up!

Be on the lookout for a verification email in your inbox.

You'll start receiving the daily forecast at 8 AM.

×

10-Day Weather Forecast

Almanac

Astronomy

Feb. 28, 2017 Rise Set
Actual Time
Civil Twilight
Nautical Twilight
Astronomical Twilight
Moon
Length of Visible Light
Length of Day
Tomorrow will be .
, % of the Moon is Illuminated

Today's Extremes

State Highs State Lows

Community

WunderPhotos

Upload Photos

1,962,540 photos uploaded!

WunderBlog® & News

Nearby

Air Quality

  Air Quality AQ Index Pollutant
Not available.

Snow Depth

Station Depth Elevation

Earthquake Activity

City Distance Mag. Time & Date
Minimum magnitude displayed is 2.5.

Coastal Water Temperatures

Place Temperature

Stations

Nearby Weather Stations

Station Location Temp. Windchill Dew Point Humidity Wind Precip. Elev Updated Type
                   

Watches & Warnings

Special Statement
Issued: 2:02 AM EST Feb. 28, 2017 – National Weather Service

... Spotty light freezing rain early this morning...

An area of light rain is pushing slowly northeastward across parts
of central New York early this morning. Although many areas are
above freezing, a few spots remain in the 30-32 degree range. As a
result, some brief and spotty light freezing rain may occur.

Untreated surfaces may become slippery. Motorists are advised to
use caution early this morning and be prepared for changeable
conditions.


Jurewicz